EW0395 Weather Reports


Display with metric or nautical units.
time (UTC)temp
F
wind
direction
speed
MPH
gust
MPH
rain 1hr
in
rain 24hr
in
rain mn
in
humidity
%
barometer
mb
20240625094514 51 0 0.0 0.0 0.00 0.16 0.00 99 1011.3
20240625093013 52 0 0.0 0.0 0.00 0.16 0.00 99 1011.1
20240625091513 52 0 0.0 0.0 0.00 0.16 0.00 99 1010.7
20240625090016 52 0 0.0 0.0 0.00 0.16 0.00 99 1010.6
20240625084519 52 0 0.0 0.0 0.00 0.16 0.00 99 1010.5
20240625083027 52 0 0.0 0.0 0.00 0.16 0.00 99 1010.3
20240625081516 52 0 0.0 0.0 0.00 0.16 0.00 99 1010.0
20240625080020 52 0 0.0 0.0 0.00 0.16 0.00 99 1010.0
20240625074526 53 0 0.0 0.0 0.00 0.16 0.00 99 1009.8
20240625073020 53 0 0.0 0.0 0.00 0.16 0.00 99 1009.8
20240625071515 54 0 0.0 0.0 0.00 0.16 0.00 99 1009.6
20240625070016 54 0 0.0 0.0 0.00 0.16 0.00 99 1009.6
20240625064520 54 0 0.0 0.0 0.00 0.16 0.00 99 1009.6
20240625063017 54 0 0.0 0.0 0.00 0.16 0.00 99 1009.4
20240625061518 54 0 0.0 0.0 0.00 0.16 0.00 99 1009.6
20240625060022 54 0 0.0 0.0 0.00 0.16 0.00 99 1009.5
20240625054516 54 0 0.0 0.0 0.00 0.16 0.00 99 1009.6
20240625053017 54 0 0.0 0.0 0.00 0.16 0.00 99 1009.4
20240625051515 54 0 0.0 0.0 0.00 0.16 0.00 99 1009.4
20240625050019 54 0 0.0 1.0 0.00 0.16 0.00 99 1009.2
20240625044514 54 0 0.0 0.0 0.00 0.16 0.00 98 1009.2
20240625043019 54 0 0.0 0.0 0.00 0.16 0.00 98 1008.9
20240625041530 55 0 0.0 0.0 0.00 0.16 0.00 98 1008.7
20240625040022 55 0 0.0 0.0 0.00 0.16 0.00 98 1008.3
20240625034515 56 0 0.0 0.0 0.00 0.16 0.16 98 1008.0
20240625033019 56 0 0.0 1.0 0.00 0.16 0.16 98 1008.0
20240625031524 56 0 0.0 0.0 0.00 0.16 0.16 98 1008.0
20240625030014 57 0 0.0 1.0 0.00 0.16 0.16 98 1008.0
20240625024533 57 0 0.0 0.0 0.00 0.16 0.16 97 1008.1
20240625023016 57 0 0.0 1.0 0.00 0.16 0.16 97 1008.3
20240625021542 58 0 0.0 0.0 0.00 0.16 0.16 98 1008.0
20240625020015 58 0 0.0 0.0 0.00 0.16 0.16 98 1008.0
20240625014517 58 0 0.0 1.0 0.01 0.16 0.16 98 1007.8
20240625013014 58 0 0.0 1.0 0.02 0.16 0.16 98 1007.6
20240625011520 58 0 0.0 0.0 0.02 0.16 0.16 98 1007.4
20240625010017 58 0 0.0 0.0 0.02 0.16 0.16 98 1007.1
20240625004517 59 0 0.0 1.0 0.01 0.20 0.15 98 1006.9
20240625003019 59 0 0.0 1.0 0.00 0.19 0.14 98 1006.6
20240625001514 59 288 0.0 1.0 0.00 0.19 0.14 98 1006.3
20240625000017 60 0 0.0 2.0 0.00 0.19 0.14 98 1006.1
20240624234514 60 300 0.0 3.0 0.00 0.22 0.14 97 1005.7
20240624233018 60 343 0.0 3.0 0.01 0.22 0.14 97 1005.5
20240624231534 61 287 0.0 6.0 0.01 0.22 0.14 97 1004.9
20240624230014 61 244 0.0 2.0 0.02 0.22 0.14 98 1004.7
20240624224517 62 256 0.0 3.0 0.03 0.22 0.14 98 1004.1
20240624223016 62 0 0.0 1.0 0.03 0.21 0.13 97 1003.9
20240624221521 62 0 0.0 1.0 0.07 0.21 0.13 97 1003.6
20240624220017 62 0 0.0 2.0 0.06 0.20 0.12 97 1003.5
20240624214518 62 336 0.0 1.0 0.08 0.19 0.11 96 1003.2
20240624213018 63 0 0.0 1.0 0.08 0.17 0.09 95 1003.2
20240624211516 63 0 0.0 1.0 0.05 0.14 0.06 93 1003.2
20240624210019 64 0 0.0 2.0 0.05 0.14 0.06 92 1002.9
20240624204525 66 250 0.0 1.0 0.01 0.80 0.02 87 1002.8
20240624203032 67 0 0.0 2.0 0.00 0.79 0.01 87 1002.6
20240624201520 67 0 0.0 1.0 0.00 0.79 0.01 85 1002.4
20240624200017 67 0 0.0 2.0 0.00 0.79 0.01 86 1002.2
20240624194516 67 0 0.0 1.0 0.00 0.79 0.01 87 1002.3
20240624193018 66 0 0.0 0.0 0.00 0.79 0.01 89 1002.4
20240624191517 65 304 0.0 1.0 0.00 0.79 0.01 89 1002.4
20240624190024 65 342 0.0 2.0 0.00 0.79 0.01 88 1002.2
20240624184518 66 0 0.0 0.0 0.01 0.79 0.01 85 1002.1
20240624183018 66 0 0.0 2.0 0.01 0.79 0.01 88 1002.0
20240624181518 64 0 0.0 1.0 0.01 0.79 0.01 90 1002.1
20240624180017 64 0 0.0 1.0 0.01 0.79 0.01 89 1002.2
20240624174518 66 348 0.0 1.0 0.00 0.78 0.00 82 1002.0
20240624173029 67 0 0.0 1.0 0.00 0.78 0.00 84 1001.8
20240624171519 66 0 0.0 1.0 0.00 0.78 0.00 85 1001.8
20240624170024 65 14 0.0 1.0 0.00 0.78 0.00 86 1001.8
20240624164515 64 0 0.0 0.0 0.00 0.78 0.00 87 1001.8
20240624163017 64 0 0.0 2.0 0.00 0.78 0.00 86 1001.8
20240624161519 65 0 0.0 1.0 0.00 0.78 0.00 86 1001.7
20240624160019 66 0 0.0 1.0 0.00 0.78 0.00 85 1001.6
20240624154525 65 0 0.0 1.0 0.00 0.78 0.00 86 1001.5
20240624153018 65 348 0.0 2.0 0.00 0.78 0.00 88 1001.3
20240624151519 65 11 0.0 1.0 0.00 0.78 0.00 87 1001.3
20240624150018 65 333 0.0 1.0 0.00 0.78 0.00 86 1001.2
20240624144518 66 0 0.0 1.0 0.00 0.78 0.00 84 1001.2
20240624143024 66 0 0.0 1.0 0.00 0.78 0.00 80 1000.9
20240624141518 68 11 1.0 3.0 0.00 0.78 0.00 80 1000.9
20240624140017 69 349 1.0 4.0 0.00 0.78 0.00 80 1000.8
20240624134523 68 0 0.0 2.0 0.00 0.78 0.00 83 1000.8
20240624133019 67 300 1.0 2.0 0.00 0.78 0.00 85 1000.7
20240624131520 66 329 0.0 2.0 0.00 0.78 0.00 86 1000.7
20240624130029 67 338 0.0 3.0 0.00 0.78 0.00 85 1000.5
20240624124518 66 347 0.0 2.0 0.00 0.78 0.00 87 1000.5
20240624123020 64 11 0.0 2.0 0.00 0.78 0.00 91 1000.8
20240624121518 63 328 0.0 1.0 0.00 0.78 0.00 93 1000.9
20240624120019 62 0 0.0 1.0 0.00 0.78 0.00 94 1000.8
20240624114535 62 0 0.0 0.0 0.00 0.80 0.00 94 1000.9
20240624113014 62 0 0.0 1.0 0.00 0.80 0.00 96 1000.9
20240624111517 62 343 0.0 1.0 0.00 0.80 0.00 96 1000.8
20240624110018 63 343 0.0 1.0 0.00 0.80 0.00 97 1000.8
20240624104519 63 301 0.0 1.0 0.00 0.80 0.00 97 1000.7
20240624103016 63 0 0.0 1.0 0.00 0.80 0.00 97 1000.9
20240624101518 63 0 0.0 1.0 0.00 0.80 0.00 98 1000.8
20240624100036 64 0 0.0 1.0 0.00 0.80 0.00 99 1000.5